createdAt,value
2017-10-11T00:00:53.364Z,11.15
2017-10-11T00:01:53.345Z,11.13
2017-10-11T00:02:53.336Z,11.2
2017-10-11T00:03:53.347Z,11.13
2017-10-11T00:04:53.317Z,11.12
2017-10-11T00:05:52.970Z,11.13
2017-10-11T00:06:53.304Z,11.15
2017-10-11T00:07:53.305Z,11.16
2017-10-11T00:08:53.312Z,11.16
2017-10-11T00:09:53.486Z,11.2
2017-10-11T00:10:52.924Z,11.15
2017-10-11T00:11:52.914Z,11.13
2017-10-11T00:12:53.247Z,11.16
2017-10-11T00:13:53.236Z,11.16
2017-10-11T00:14:53.231Z,11.13
2017-10-11T00:15:52.880Z,11.1
2017-10-11T00:16:53.210Z,11.2
2017-10-11T00:17:52.862Z,11.12
2017-10-11T00:18:52.861Z,11.23
2017-10-11T00:19:52.843Z,11.12
2017-10-11T00:20:53.175Z,11.16
2017-10-11T00:21:53.184Z,11.18
2017-10-11T00:22:52.815Z,11.1
2017-10-11T00:23:53.144Z,11.12
2017-10-11T00:24:52.797Z,11.13
2017-10-11T00:25:52.807Z,11.24
2017-10-11T00:26:53.139Z,11.2
2017-10-11T00:27:52.827Z,11.2
2017-10-11T00:28:53.102Z,11.21
2017-10-11T00:29:53.450Z,11.26
2017-10-11T00:30:52.744Z,11.09
2017-10-11T00:31:53.078Z,11.12
2017-10-11T00:32:52.726Z,11.23
2017-10-11T00:33:53.056Z,11.15
2017-10-11T00:34:52.710Z,11.15
2017-10-11T00:35:53.065Z,11.15
2017-10-11T00:36:52.696Z,11.1
2017-10-11T00:37:53.021Z,11.12
2017-10-11T00:38:53.014Z,11.15
2017-10-11T00:39:53.026Z,11.12
2017-10-11T00:40:52.997Z,11.2
2017-10-11T00:41:53.333Z,11.12
2017-10-11T00:42:52.646Z,11.24
2017-10-11T00:43:52.626Z,11.13
2017-10-11T00:44:52.617Z,11.12
2017-10-11T00:45:52.950Z,11.13
2017-10-11T00:46:52.942Z,11.15
2017-10-11T00:47:52.935Z,11.18
2017-10-11T00:48:52.941Z,11.21
2017-10-11T00:49:52.574Z,11.18
2017-10-11T00:50:52.912Z,11.15
2017-10-11T00:51:52.562Z,11.12
2017-10-11T00:52:52.546Z,11.12
2017-10-11T00:53:52.878Z,11.12
2017-10-11T00:54:52.869Z,11.2
2017-10-11T00:55:53.209Z,11.18
2017-10-11T00:56:52.851Z,11.09
2017-10-11T00:57:52.839Z,11.16
2017-10-11T00:58:53.205Z,11.15
2017-10-11T00:59:52.823Z,11.13
2017-10-11T01:00:52.813Z,11.09
2017-10-11T01:01:52.464Z,11.12
2017-10-11T01:02:52.797Z,11.18
2017-10-11T01:03:52.849Z,11.13
2017-10-11T01:04:52.438Z,11.09
2017-10-11T01:05:52.466Z,11.09
2017-10-11T01:06:52.776Z,11.15
2017-10-11T01:07:52.758Z,11.16
2017-10-11T01:08:52.402Z,11.13
2017-10-11T01:09:52.809Z,11.1
2017-10-11T01:10:52.391Z,11.1
2017-10-11T01:11:52.724Z,11.16
2017-10-11T01:12:53.064Z,11.13
2017-10-11T01:13:52.356Z,11.1
2017-10-11T01:14:53.030Z,11.2
2017-10-11T01:15:52.682Z,11.16
2017-10-11T01:16:52.684Z,11.16
2017-10-11T01:17:52.667Z,11.06
2017-10-11T01:18:52.316Z,11.09
2017-10-11T01:19:52.302Z,11.08
2017-10-11T01:20:53.025Z,11.06
2017-10-11T01:21:52.624Z,11.08
2017-10-11T01:22:52.634Z,11.1
2017-10-11T01:23:52.267Z,11.08
2017-10-11T01:24:52.958Z,11.08
2017-10-11T01:25:52.313Z,11.15
2017-10-11T01:26:52.303Z,11.1
2017-10-11T01:27:52.890Z,11.09
2017-10-11T01:28:52.220Z,11.08
2017-10-11T01:29:52.564Z,11.08
2017-10-11T01:30:52.204Z,11.03
2017-10-11T01:31:52.535Z,11.05
2017-10-11T01:32:52.190Z,11.08
2017-10-11T01:33:52.194Z,11.08
2017-10-11T01:34:52.529Z,11.15
2017-10-11T01:35:52.158Z,11.09
2017-10-11T01:36:52.835Z,11.1
2017-10-11T01:37:52.823Z,11.15
2017-10-11T01:38:52.832Z,11.1
2017-10-11T01:39:52.469Z,11.1
2017-10-11T01:40:52.792Z,11.12
2017-10-11T01:41:52.456Z,11.02
2017-10-11T01:42:52.444Z,11.03
2017-10-11T01:43:52.422Z,11.08
2017-10-11T01:44:52.086Z,11.1
2017-10-11T01:45:52.090Z,11.06
2017-10-11T01:46:52.054Z,11.05
2017-10-11T01:47:52.730Z,11.09
2017-10-11T01:48:52.040Z,11.08
2017-10-11T01:49:52.714Z,11.16
2017-10-11T01:50:52.018Z,11.08
2017-10-11T01:51:52.354Z,11.12
2017-10-11T01:52:52.342Z,11.13
2017-10-11T01:53:52.007Z,11.09
2017-10-11T01:54:51.997Z,11.16
2017-10-11T01:55:52.315Z,11.09
2017-10-11T01:56:52.667Z,11.1
2017-10-11T01:57:52.296Z,11.1
2017-10-11T01:58:52.307Z,11.16
2017-10-11T01:59:52.292Z,11.1
2017-10-11T02:00:52.613Z,11.13
2017-10-11T02:01:52.608Z,11.12
2017-10-11T02:02:52.266Z,11.15
2017-10-11T02:03:52.243Z,11.15
2017-10-11T02:04:51.904Z,11.09
2017-10-11T02:05:52.257Z,11.1
2017-10-11T02:06:51.877Z,11.13
2017-10-11T02:07:52.554Z,11.12
2017-10-11T02:08:52.198Z,11.12
2017-10-11T02:09:52.190Z,11.18
2017-10-11T02:10:51.841Z,11.15
2017-10-11T02:11:51.832Z,11.16
2017-10-11T02:12:52.518Z,11.12
2017-10-11T02:13:52.151Z,11.08
2017-10-11T02:14:51.811Z,11.16
2017-10-11T02:15:51.793Z,11.13
2017-10-11T02:16:52.126Z,11.12
2017-10-11T02:17:51.796Z,11.1
2017-10-11T02:18:51.784Z,11.13
2017-10-11T02:19:52.100Z,11.15
2017-10-11T02:20:51.757Z,11.13
2017-10-11T02:21:52.107Z,11.16
2017-10-11T02:22:52.414Z,11.18
2017-10-11T02:23:51.735Z,11.26
2017-10-11T02:24:52.061Z,11.13
2017-10-11T02:25:52.383Z,11.13
2017-10-11T02:26:51.698Z,11.15
2017-10-11T02:27:52.036Z,11.2
2017-10-11T02:28:51.692Z,11.16
2017-10-11T02:29:51.670Z,11.21
2017-10-11T02:30:52.002Z,11.13
2017-10-11T02:31:51.652Z,11.12
2017-10-11T02:32:51.988Z,11.09
2017-10-11T02:33:51.976Z,11.2
2017-10-11T02:34:51.981Z,11.13
2017-10-11T02:35:51.636Z,11.13
2017-10-11T02:36:51.952Z,11.18
2017-10-11T02:37:51.936Z,11.18
2017-10-11T02:38:51.590Z,11.16
2017-10-11T02:39:51.579Z,11.13
2017-10-11T02:40:51.915Z,11.12
2017-10-11T02:41:51.905Z,11.15
2017-10-11T02:42:51.575Z,11.15
2017-10-11T02:43:51.887Z,11.13
2017-10-11T02:44:51.891Z,11.13
2017-10-11T02:45:51.932Z,11.1
2017-10-11T02:46:51.520Z,11.13
2017-10-11T02:47:51.850Z,11.12
2017-10-11T02:48:51.505Z,11.09
2017-10-11T02:49:51.829Z,11.16
2017-10-11T02:50:51.481Z,11.2
2017-10-11T02:51:51.824Z,11.15
2017-10-11T02:52:51.465Z,11.16
2017-10-11T02:53:51.823Z,11.12
2017-10-11T02:54:51.449Z,11.1
2017-10-11T02:55:51.436Z,11.09
2017-10-11T02:56:51.427Z,11.1
2017-10-11T02:57:51.772Z,11.24
2017-10-11T02:58:52.087Z,11.23
2017-10-11T02:59:51.412Z,11.13
2017-10-11T03:00:51.393Z,11.16
2017-10-11T03:01:51.390Z,11.23
2017-10-11T03:02:51.375Z,11.2
2017-10-11T03:03:51.363Z,11.26
2017-10-11T03:04:51.701Z,11.13
2017-10-11T03:05:51.686Z,11.26
2017-10-11T03:06:51.338Z,11.15
2017-10-11T03:07:51.669Z,11.12
2017-10-11T03:08:51.671Z,11.21
2017-10-11T03:09:51.337Z,11.15
2017-10-11T03:10:51.300Z,11.12
2017-10-11T03:11:51.300Z,11.13
2017-10-11T03:12:51.967Z,11.24
2017-10-11T03:13:51.631Z,11.15
2017-10-11T03:14:51.266Z,11.12
2017-10-11T03:15:51.598Z,11.16
2017-10-11T03:16:51.588Z,11.15
2017-10-11T03:17:51.582Z,11.16
2017-10-11T03:18:51.925Z,11.13
2017-10-11T03:19:51.907Z,11.16
2017-10-11T03:20:51.555Z,11.21
2017-10-11T03:21:51.892Z,11.18
2017-10-11T03:22:51.539Z,11.23
2017-10-11T03:23:51.526Z,11.27
2017-10-11T03:24:51.518Z,11.27
2017-10-11T03:25:51.514Z,11.23
2017-10-11T03:26:51.172Z,11.23
2017-10-11T03:27:51.492Z,11.24
2017-10-11T03:28:51.484Z,11.23
2017-10-11T03:29:51.499Z,11.24
2017-10-11T03:30:51.130Z,11.24
2017-10-11T03:31:51.469Z,11.26
2017-10-11T03:32:51.467Z,11.27
2017-10-11T03:33:51.446Z,11.18
2017-10-11T03:34:51.088Z,11.24
2017-10-11T03:35:51.770Z,11.26
2017-10-11T03:36:51.092Z,11.21
2017-10-11T03:37:51.405Z,11.26
2017-10-11T03:38:51.062Z,11.21
2017-10-11T03:39:51.406Z,11.21
2017-10-11T03:40:51.074Z,11.27
2017-10-11T03:41:51.027Z,11.09
2017-10-11T03:42:51.720Z,11.21
2017-10-11T03:43:51.350Z,11.18
2017-10-11T03:44:51.679Z,11.18
2017-10-11T03:45:51.328Z,11.13
2017-10-11T03:46:51.325Z,11.21
2017-10-11T03:47:51.312Z,11.18
2017-10-11T03:48:50.965Z,11.08
2017-10-11T03:49:50.969Z,11.12
2017-10-11T03:50:50.943Z,11.12
2017-10-11T03:51:50.937Z,11.13
2017-10-11T03:52:51.270Z,11.09
2017-10-11T03:53:50.917Z,11.16
2017-10-11T03:54:50.910Z,11.18
2017-10-11T03:55:51.239Z,11.18
2017-10-11T03:56:51.235Z,11.1
2017-10-11T03:57:50.887Z,11.16
2017-10-11T03:58:50.879Z,11.18
2017-10-11T03:59:50.867Z,11.1
2017-10-11T04:00:51.199Z,11.1
2017-10-11T04:01:50.846Z,11.18
2017-10-11T04:02:50.839Z,11.13
2017-10-11T04:03:50.834Z,11.1
2017-10-11T04:04:50.840Z,11.13
2017-10-11T04:05:50.811Z,11.16
2017-10-11T04:06:51.152Z,11.12
2017-10-11T04:07:51.133Z,11.09
2017-10-11T04:08:50.787Z,11.13
2017-10-11T04:09:51.119Z,11.21
2017-10-11T04:10:50.766Z,11.15
2017-10-11T04:11:51.440Z,11.1
2017-10-11T04:12:51.093Z,11.23
2017-10-11T04:13:51.079Z,11.12
2017-10-11T04:14:51.119Z,11.13
2017-10-11T04:15:51.082Z,11.1
2017-10-11T04:16:51.059Z,11.1
2017-10-11T04:17:50.776Z,11.13
2017-10-11T04:18:51.035Z,11.13
2017-10-11T04:19:51.380Z,11.16
2017-10-11T04:20:50.677Z,11.12
2017-10-11T04:21:51.019Z,11.12
2017-10-11T04:22:51.368Z,11.13
2017-10-11T04:23:50.999Z,11.15
2017-10-11T04:24:50.982Z,11.1
2017-10-11T04:25:50.974Z,11.09
2017-10-11T04:26:50.978Z,11.1
2017-10-11T04:27:51.341Z,11.16
2017-10-11T04:28:50.616Z,11.09
2017-10-11T04:29:51.392Z,11.12
2017-10-11T04:30:50.587Z,11.13
2017-10-11T04:31:50.931Z,11.09
2017-10-11T04:32:50.569Z,11.06
2017-10-11T04:33:50.913Z,11.08
2017-10-11T04:34:51.243Z,11.13
2017-10-11T04:35:50.893Z,11.06
2017-10-11T04:36:50.882Z,11.08
2017-10-11T04:37:50.538Z,11.12
2017-10-11T04:38:50.535Z,11.13
2017-10-11T04:39:50.850Z,11.09
2017-10-11T04:40:50.843Z,11.1
2017-10-11T04:41:51.180Z,11.16
2017-10-11T04:42:50.823Z,11.1
2017-10-11T04:43:50.477Z,11.2
2017-10-11T04:44:50.886Z,11.13
2017-10-11T04:45:50.792Z,11.15
2017-10-11T04:46:50.795Z,11.16
2017-10-11T04:47:50.808Z,11.08
2017-10-11T04:48:50.766Z,11.09
2017-10-11T04:49:50.757Z,11.12
2017-10-11T04:50:50.773Z,11.08
2017-10-11T04:51:51.132Z,11.09
2017-10-11T04:52:50.393Z,11.2
2017-10-11T04:53:50.394Z,11.12
2017-10-11T04:54:50.369Z,11.09
2017-10-11T04:55:50.374Z,11.12
2017-10-11T04:56:50.696Z,11.09
2017-10-11T04:57:50.693Z,11.09
2017-10-11T04:58:50.690Z,11.13
2017-10-11T04:59:50.677Z,11.09
2017-10-11T05:00:50.331Z,11.13
2017-10-11T05:01:50.653Z,11.08
2017-10-11T05:02:50.299Z,11.13
2017-10-11T05:03:50.630Z,11.13
2017-10-11T05:04:50.620Z,11.09
2017-10-11T05:05:50.618Z,11.1
2017-10-11T05:06:50.975Z,11.08
2017-10-11T05:07:50.947Z,11.08
2017-10-11T05:08:50.607Z,11.1
2017-10-11T05:09:50.937Z,11.09
2017-10-11T05:10:50.237Z,11.18
2017-10-11T05:11:50.561Z,11.1
2017-10-11T05:12:50.557Z,11.02
2017-10-11T05:13:50.879Z,11.06
2017-10-11T05:14:50.198Z,11.08
2017-10-11T05:15:50.179Z,11.08
2017-10-11T05:16:50.175Z,10.98
2017-10-11T05:17:50.511Z,11.03
2017-10-11T05:18:50.172Z,11.1
2017-10-11T05:19:50.485Z,11.06
2017-10-11T05:20:50.489Z,11.12
2017-10-11T05:21:50.483Z,10.98
2017-10-11T05:22:50.118Z,11.03
2017-10-11T05:23:50.110Z,11.1
2017-10-11T05:24:50.442Z,11.06
2017-10-11T05:25:50.809Z,11.13
2017-10-11T05:26:50.083Z,11.13
2017-10-11T05:27:50.425Z,11.13
2017-10-11T05:28:50.436Z,11.16
2017-10-11T05:29:50.425Z,11.06
2017-10-11T05:30:50.387Z,11.06
2017-10-11T05:31:50.380Z,11.1
2017-10-11T05:32:50.052Z,11.12
2017-10-11T05:33:50.019Z,10.98
2017-10-11T05:34:50.351Z,11.12
2017-10-11T05:35:50.003Z,11.09
2017-10-11T05:36:50.008Z,11.13
2017-10-11T05:37:50.324Z,11.13
2017-10-11T05:38:49.991Z,11.03
2017-10-11T05:39:50.327Z,11.05
2017-10-11T05:40:50.297Z,11
2017-10-11T05:41:50.311Z,11.08
2017-10-11T05:42:49.947Z,11.08
2017-10-11T05:43:49.930Z,11.13
2017-10-11T05:44:50.259Z,11.09
2017-10-11T05:45:49.912Z,11.16
2017-10-11T05:46:49.924Z,11.18
2017-10-11T05:47:49.916Z,11.16
2017-10-11T05:48:49.903Z,11.15
2017-10-11T05:49:49.876Z,11.15
2017-10-11T05:50:50.208Z,11.2
2017-10-11T05:51:50.198Z,11.27
2017-10-11T05:52:49.855Z,11.2
2017-10-11T05:53:50.527Z,11.18
2017-10-11T05:54:50.175Z,11.23
2017-10-11T05:55:50.173Z,11.23
2017-10-11T05:56:50.494Z,11.23
2017-10-11T05:57:49.804Z,11.31
2017-10-11T05:58:49.792Z,11.23
2017-10-11T05:59:50.152Z,11.33
2017-10-11T06:00:49.777Z,11.2
2017-10-11T06:01:50.128Z,11.33
2017-10-11T06:02:49.785Z,11.31
2017-10-11T06:03:50.095Z,11.28
2017-10-11T06:04:49.744Z,11.33
2017-10-11T06:05:49.746Z,11.34
2017-10-11T06:06:50.077Z,11.28
2017-10-11T06:07:50.057Z,11.3
2017-10-11T06:08:50.070Z,11.38
2017-10-11T06:09:50.380Z,11.38
2017-10-11T06:10:50.386Z,11.39
2017-10-11T06:11:50.049Z,11.39
2017-10-11T06:12:50.020Z,11.43
2017-10-11T06:13:49.687Z,11.41
2017-10-11T06:14:49.994Z,11.41
2017-10-11T06:15:50.327Z,11.43
2017-10-11T06:16:49.973Z,11.45
2017-10-11T06:17:50.326Z,11.42
2017-10-11T06:18:49.617Z,11.46
2017-10-11T06:19:49.965Z,11.46
2017-10-11T06:20:49.938Z,11.45
2017-10-11T06:21:49.592Z,11.49
2017-10-11T06:22:49.946Z,11.48
2017-10-11T06:23:49.928Z,11.46
2017-10-11T06:24:49.913Z,11.52
2017-10-11T06:25:49.896Z,11.52
2017-10-11T06:26:49.890Z,11.56
2017-10-11T06:27:49.559Z,11.49
2017-10-11T06:28:49.528Z,11.52
2017-10-11T06:29:49.520Z,11.53
2017-10-11T06:30:49.851Z,11.52
2017-10-11T06:31:49.842Z,11.57
2017-10-11T06:32:49.494Z,11.53
2017-10-11T06:33:49.486Z,11.52
2017-10-11T06:34:49.820Z,11.52
2017-10-11T06:35:50.156Z,11.67
2017-10-11T06:36:49.830Z,11.6
2017-10-11T06:37:49.448Z,11.66
2017-10-11T06:38:49.461Z,11.68
2017-10-11T06:39:49.774Z,11.67
2017-10-11T06:40:49.791Z,11.66
2017-10-11T06:41:49.758Z,11.7
2017-10-11T06:42:49.407Z,11.82
2017-10-11T06:43:49.742Z,11.76
2017-10-11T06:44:49.389Z,11.85
2017-10-11T06:45:49.385Z,11.91
2017-10-11T06:46:49.375Z,11.88
2017-10-11T06:47:49.369Z,11.81
2017-10-11T06:48:49.357Z,11.79
2017-10-11T06:49:49.358Z,11.78
2017-10-11T06:50:49.359Z,11.79
2017-10-11T06:51:49.334Z,11.94
2017-10-11T06:52:49.323Z,11.88
2017-10-11T06:53:49.654Z,11.95
2017-10-11T06:54:49.323Z,11.98
2017-10-11T06:55:50.004Z,12.01
2017-10-11T06:56:49.640Z,12
2017-10-11T06:57:49.644Z,12
2017-10-11T06:58:49.620Z,11.97
2017-10-11T06:59:49.960Z,12.11
2017-10-11T07:00:49.256Z,11.95
2017-10-11T07:01:49.587Z,12.01
2017-10-11T07:02:49.609Z,12
2017-10-11T07:03:49.573Z,11.94
2017-10-11T07:04:49.224Z,11.91
2017-10-11T07:05:49.241Z,11.94
2017-10-11T07:06:49.561Z,11.95
2017-10-11T07:07:49.198Z,12.01
2017-10-11T07:08:49.549Z,12.04
2017-10-11T07:09:49.522Z,12.05
2017-10-11T07:10:49.176Z,12
2017-10-11T07:11:49.167Z,12.08
2017-10-11T07:12:49.500Z,12.11
2017-10-11T07:13:49.532Z,12.13
2017-10-11T07:14:49.143Z,12.18
2017-10-11T07:15:49.133Z,12.23
2017-10-11T07:16:49.467Z,12.34
2017-10-11T07:17:49.140Z,12.28
2017-10-11T07:18:49.470Z,12.44
2017-10-11T07:19:49.100Z,12.45
2017-10-11T07:20:49.500Z,12.44
2017-10-11T07:21:49.465Z,12.53
2017-10-11T07:22:49.078Z,12.53
2017-10-11T07:23:49.753Z,12.59
2017-10-11T07:24:49.402Z,12.63
2017-10-11T07:25:49.752Z,12.55
2017-10-11T07:26:49.385Z,12.58
2017-10-11T07:27:49.041Z,12.59
2017-10-11T07:28:49.031Z,12.51
2017-10-11T07:29:49.364Z,12.52
2017-10-11T07:30:49.380Z,12.55
2017-10-11T07:31:49.348Z,12.52
2017-10-11T07:32:49.000Z,12.51
2017-10-11T07:33:49.341Z,12.44
2017-10-11T07:34:49.662Z,12.44
2017-10-11T07:35:48.987Z,12.4
2017-10-11T07:36:49.313Z,12.44
2017-10-11T07:37:49.304Z,12.43
2017-10-11T07:38:49.314Z,12.43
2017-10-11T07:39:48.951Z,12.44
2017-10-11T07:40:48.949Z,12.43
2017-10-11T07:41:49.286Z,12.41
2017-10-11T07:42:49.300Z,12.41
2017-10-11T07:43:48.915Z,12.48
2017-10-11T07:44:48.904Z,12.47
2017-10-11T07:45:48.900Z,12.62
2017-10-11T07:46:49.591Z,12.58
2017-10-11T07:47:48.883Z,12.61
2017-10-11T07:48:48.888Z,12.61
2017-10-11T07:49:49.248Z,12.56
2017-10-11T07:50:49.207Z,12.61
2017-10-11T07:51:49.198Z,12.59
2017-10-11T07:52:49.569Z,12.62
2017-10-11T07:53:49.198Z,12.76
2017-10-11T07:54:48.830Z,12.8
2017-10-11T07:55:49.167Z,12.83
2017-10-11T07:56:48.813Z,12.86
2017-10-11T07:57:49.150Z,12.81
2017-10-11T07:58:48.819Z,12.94
2017-10-11T07:59:49.134Z,12.91
2017-10-11T08:00:48.804Z,12.95
2017-10-11T08:01:48.831Z,12.86
2017-10-11T08:02:48.773Z,12.89
2017-10-11T08:03:49.113Z,12.83
2017-10-11T08:04:48.765Z,12.84
2017-10-11T08:05:49.093Z,12.84
2017-10-11T08:06:48.740Z,12.89
2017-10-11T08:07:48.736Z,12.91
2017-10-11T08:08:49.086Z,12.94
2017-10-11T08:09:48.717Z,12.95
2017-10-11T08:10:49.063Z,13.09
2017-10-11T08:11:48.721Z,13.11
2017-10-11T08:12:48.695Z,13.1
2017-10-11T08:13:49.045Z,13.2
2017-10-11T08:14:48.682Z,13.24
2017-10-11T08:15:49.362Z,13.17
2017-10-11T08:16:48.689Z,13.16
2017-10-11T08:17:49.000Z,13.16
2017-10-11T08:18:49.343Z,13.28
2017-10-11T08:19:49.334Z,13.28
2017-10-11T08:20:48.993Z,13.37
2017-10-11T08:21:48.630Z,13.42
2017-10-11T08:22:48.959Z,13.4
2017-10-11T08:23:48.616Z,13.42
2017-10-11T08:24:49.019Z,13.37
2017-10-11T08:25:48.948Z,13.4
2017-10-11T08:26:48.598Z,13.44
2017-10-11T08:27:48.590Z,13.42
2017-10-11T08:28:48.731Z,13.39
2017-10-11T08:29:49.160Z,13.51
2017-10-11T08:30:49.060Z,13.36
2017-10-11T08:31:48.922Z,13.42
2017-10-11T08:32:48.904Z,13.5
2017-10-11T08:33:48.893Z,13.42
2017-10-11T08:34:48.904Z,13.45
2017-10-11T08:35:48.537Z,13.51
2017-10-11T08:36:48.874Z,13.63
2017-10-11T08:37:49.216Z,13.69
2017-10-11T08:38:48.853Z,13.78
2017-10-11T08:39:48.513Z,13.84
2017-10-11T08:40:48.853Z,13.9
2017-10-11T08:41:48.833Z,13.87
2017-10-11T08:42:48.831Z,13.87
2017-10-11T08:43:48.820Z,13.84
2017-10-11T08:44:48.819Z,13.84
2017-10-11T08:45:48.468Z,13.88
2017-10-11T08:46:48.461Z,13.94
2017-10-11T08:47:48.455Z,13.84
2017-10-11T08:48:48.803Z,13.87
2017-10-11T08:49:49.124Z,13.87
2017-10-11T08:50:48.434Z,13.84
2017-10-11T08:51:48.462Z,13.81
2017-10-11T08:52:48.763Z,13.84
2017-10-11T08:53:48.424Z,13.81
2017-10-11T08:54:48.750Z,13.91
2017-10-11T08:55:48.404Z,13.94
2017-10-11T08:56:48.434Z,14.01
2017-10-11T08:57:48.730Z,14.08
2017-10-11T08:58:48.384Z,14.3
2017-10-11T08:59:48.726Z,14.33
2017-10-11T09:00:48.371Z,14.44
2017-10-11T09:01:48.705Z,14.44
2017-10-11T09:02:48.380Z,14.6
2017-10-11T09:03:48.709Z,14.61
2017-10-11T09:04:48.362Z,14.63
2017-10-11T09:05:49.022Z,14.66
2017-10-11T09:06:48.680Z,14.6
2017-10-11T09:07:48.698Z,14.67
2017-10-11T09:08:48.323Z,14.69
2017-10-11T09:09:48.666Z,14.64
2017-10-11T09:10:48.659Z,14.66
2017-10-11T09:11:48.302Z,14.71
2017-10-11T09:12:48.298Z,14.69
2017-10-11T09:13:48.296Z,14.79
2017-10-11T09:14:48.630Z,14.82
2017-10-11T09:15:48.289Z,14.83
2017-10-11T09:16:48.624Z,14.89
2017-10-11T09:17:48.270Z,15.02
2017-10-11T09:18:48.952Z,15.02
2017-10-11T09:19:48.258Z,15.07
2017-10-11T09:20:48.268Z,15.08
2017-10-11T09:21:48.948Z,15.18
2017-10-11T09:22:48.244Z,15.05
2017-10-11T09:23:48.923Z,15.01
2017-10-11T09:24:48.230Z,14.9
2017-10-11T09:25:48.904Z,14.85
2017-10-11T09:26:48.220Z,14.74
2017-10-11T09:27:48.590Z,14.7
2017-10-11T09:28:48.211Z,14.66
2017-10-11T09:29:48.212Z,14.82
2017-10-11T09:30:48.541Z,14.7
2017-10-11T09:31:48.192Z,14.75
2017-10-11T09:32:48.187Z,14.63
2017-10-11T09:33:48.182Z,14.66
2017-10-11T09:34:48.862Z,14.48
2017-10-11T09:35:48.170Z,14.53
2017-10-11T09:36:48.506Z,14.48
2017-10-11T09:37:48.499Z,14.46
2017-10-11T09:38:48.165Z,14.39
2017-10-11T09:39:48.168Z,14.42
2017-10-11T09:40:48.516Z,14.38
2017-10-11T09:41:48.136Z,14.28
2017-10-11T09:42:48.810Z,14.3
2017-10-11T09:43:48.702Z,14.23
2017-10-11T09:44:48.461Z,14.26
2017-10-11T09:45:48.457Z,14.09
2017-10-11T09:46:48.118Z,14.09
2017-10-11T09:47:48.101Z,14.12
2017-10-11T09:48:48.098Z,14.11
2017-10-11T09:49:48.435Z,14.15
2017-10-11T09:50:48.092Z,14.09
2017-10-11T09:51:48.097Z,14.09
2017-10-11T09:52:48.425Z,14.09
2017-10-11T09:53:48.428Z,14.09
2017-10-11T09:54:48.062Z,14.08
2017-10-11T09:55:48.055Z,14.12
2017-10-11T09:56:48.051Z,14.24
2017-10-11T09:57:48.046Z,14.27
2017-10-11T09:58:48.068Z,14.3
2017-10-11T09:59:48.372Z,14.24
2017-10-11T10:00:48.367Z,14.27
2017-10-11T10:01:48.041Z,14.26
2017-10-11T10:02:48.374Z,14.19
2017-10-11T10:03:48.007Z,14.27
2017-10-11T10:04:48.019Z,14.33
2017-10-11T10:05:48.708Z,14.3
2017-10-11T10:06:48.674Z,14.52
2017-10-11T10:07:48.005Z,14.49
2017-10-11T10:08:48.677Z,14.45
2017-10-11T10:09:48.313Z,14.61
2017-10-11T10:10:47.965Z,14.67
2017-10-11T10:11:47.963Z,14.8
2017-10-11T10:12:48.319Z,14.77
2017-10-11T10:13:47.952Z,14.82
2017-10-11T10:14:47.980Z,14.82
2017-10-11T10:15:48.279Z,14.71
2017-10-11T10:16:48.282Z,14.75
2017-10-11T10:17:47.946Z,14.77
2017-10-11T10:18:48.265Z,14.71
2017-10-11T10:19:47.916Z,14.8
2017-10-11T10:20:48.276Z,14.82
2017-10-11T10:21:48.249Z,14.86
2017-10-11T10:22:47.899Z,14.89
2017-10-11T10:23:48.569Z,14.89
2017-10-11T10:24:48.235Z,14.97
2017-10-11T10:25:47.883Z,14.95
2017-10-11T10:26:48.216Z,15
2017-10-11T10:27:47.870Z,14.83
2017-10-11T10:28:48.206Z,14.86
2017-10-11T10:29:47.862Z,14.89
2017-10-11T10:30:48.193Z,14.66
2017-10-11T10:31:48.548Z,14.51
2017-10-11T10:32:48.180Z,14.52
2017-10-11T10:33:47.835Z,14.48
2017-10-11T10:34:48.200Z,14.49
2017-10-11T10:35:47.826Z,14.49
2017-10-11T10:36:47.836Z,14.48
2017-10-11T10:37:48.154Z,14.49
2017-10-11T10:38:48.173Z,14.45
2017-10-11T10:39:47.821Z,14.49
2017-10-11T10:40:48.485Z,14.52
2017-10-11T10:41:48.134Z,14.56
2017-10-11T10:42:47.787Z,14.66
2017-10-11T10:43:47.780Z,14.66
2017-10-11T10:44:48.115Z,14.66
2017-10-11T10:45:47.789Z,14.74
2017-10-11T10:46:47.765Z,14.86
2017-10-11T10:47:47.771Z,14.94
2017-10-11T10:48:47.767Z,14.94
2017-10-11T10:49:47.763Z,14.83
2017-10-11T10:50:47.743Z,14.87
2017-10-11T10:51:48.084Z,14.86
2017-10-11T10:52:48.075Z,14.97
2017-10-11T10:53:48.063Z,15.05
2017-10-11T10:54:48.101Z,15.1
2017-10-11T10:55:47.716Z,15.33
2017-10-11T10:56:48.391Z,15.44
2017-10-11T10:57:48.386Z,15.62
2017-10-11T10:58:48.039Z,15.73
2017-10-11T10:59:47.694Z,15.77
2017-10-11T11:00:48.042Z,15.74
2017-10-11T11:01:48.042Z,15.71
2017-10-11T11:02:48.018Z,15.77
2017-10-11T11:03:47.688Z,15.81
2017-10-11T11:04:47.667Z,15.83
2017-10-11T11:05:48.014Z,15.74
2017-10-11T11:06:47.658Z,15.75
2017-10-11T11:07:47.996Z,15.8
2017-10-11T11:08:47.995Z,15.73
2017-10-11T11:09:47.641Z,15.58
2017-10-11T11:10:47.635Z,15.41
2017-10-11T11:11:47.637Z,15.3
2017-10-11T11:12:48.000Z,15.3
2017-10-11T11:13:47.980Z,15.33
2017-10-11T11:14:47.626Z,15.34
2017-10-11T11:15:48.012Z,15.41
2017-10-11T11:16:47.949Z,15.38
2017-10-11T11:17:47.941Z,15.45
2017-10-11T11:18:47.944Z,15.44
2017-10-11T11:19:48.276Z,15.6
2017-10-11T11:20:47.927Z,15.52
2017-10-11T11:21:47.583Z,15.56
2017-10-11T11:22:47.577Z,15.68
2017-10-11T11:23:47.911Z,15.56
2017-10-11T11:24:47.907Z,15.37
2017-10-11T11:25:47.905Z,15.38
2017-10-11T11:26:47.560Z,15.37
2017-10-11T11:27:47.554Z,15.23
2017-10-11T11:28:47.900Z,15.18
2017-10-11T11:29:47.882Z,15.1
2017-10-11T11:30:47.537Z,15.02
2017-10-11T11:31:48.257Z,15.02
2017-10-11T11:32:47.878Z,15.08
2017-10-11T11:33:47.522Z,15.08
2017-10-11T11:34:47.525Z,15.05
2017-10-11T11:35:47.895Z,15
2017-10-11T11:36:47.506Z,14.94
2017-10-11T11:37:47.520Z,14.87
2017-10-11T11:38:47.855Z,14.83
2017-10-11T11:39:47.876Z,14.74
2017-10-11T11:40:48.172Z,14.67
2017-10-11T11:41:47.840Z,14.57
2017-10-11T11:42:47.477Z,14.52
2017-10-11T11:43:47.471Z,14.48
2017-10-11T11:44:47.832Z,14.44
2017-10-11T11:45:47.460Z,14.74
2017-10-11T11:46:47.812Z,15
2017-10-11T11:47:47.811Z,15.1
2017-10-11T11:48:47.456Z,15.34
2017-10-11T11:49:47.438Z,15.44
2017-10-11T11:50:47.799Z,15.56
2017-10-11T11:51:47.429Z,15.67
2017-10-11T11:52:47.611Z,15.7
2017-10-11T11:53:47.778Z,15.65
2017-10-11T11:54:47.422Z,15.55
2017-10-11T11:55:47.753Z,15.41
2017-10-11T11:56:48.091Z,15.3
2017-10-11T11:57:47.739Z,15.3
2017-10-11T11:58:47.738Z,15.2
2017-10-11T11:59:47.730Z,15.05
2017-10-11T12:00:47.724Z,15.02
2017-10-11T12:01:47.737Z,14.89
2017-10-11T12:02:47.736Z,14.9
2017-10-11T12:03:47.369Z,14.83
2017-10-11T12:04:47.369Z,14.69
2017-10-11T12:05:50.738Z,14.63
2017-10-11T12:06:47.689Z,14.71
2017-10-11T12:07:47.684Z,14.53
2017-10-11T12:08:47.678Z,14.53
2017-10-11T12:09:47.340Z,14.51
2017-10-11T12:10:47.342Z,14.53
2017-10-11T12:11:47.659Z,14.36
2017-10-11T12:12:47.655Z,14.42
2017-10-11T12:13:47.311Z,14.28
2017-10-11T12:14:47.647Z,14.31
2017-10-11T12:15:47.317Z,14.21
2017-10-11T12:16:47.649Z,14.11
2017-10-11T12:17:47.287Z,14.15
2017-10-11T12:18:47.624Z,14.12
2017-10-11T12:19:47.959Z,14.08
2017-10-11T12:20:47.984Z,14.12
2017-10-11T12:21:47.952Z,14.08
2017-10-11T12:22:47.258Z,14.05
2017-10-11T12:23:47.595Z,13.99
2017-10-11T12:24:47.246Z,14.08
2017-10-11T12:25:47.246Z,13.95
2017-10-11T12:26:47.235Z,13.95
2017-10-11T12:27:47.907Z,13.91
2017-10-11T12:28:47.564Z,13.81
2017-10-11T12:29:47.215Z,13.87
2017-10-11T12:30:47.554Z,13.86
2017-10-11T12:31:47.207Z,13.87
2017-10-11T12:32:47.539Z,13.88
2017-10-11T12:33:47.197Z,13.97
2017-10-11T12:34:47.530Z,14.09
2017-10-11T12:35:47.529Z,14.21
2017-10-11T12:36:47.197Z,14.27
2017-10-11T12:37:47.851Z,14.33
2017-10-11T12:38:47.501Z,14.48
2017-10-11T12:39:47.857Z,14.51
2017-10-11T12:40:47.494Z,14.51
2017-10-11T12:41:47.830Z,14.61
2017-10-11T12:42:47.478Z,14.59
2017-10-11T12:43:47.134Z,14.51
2017-10-11T12:44:47.138Z,14.48
2017-10-11T12:45:47.122Z,14.46
2017-10-11T12:46:47.149Z,14.46
2017-10-11T12:47:47.451Z,14.53
2017-10-11T12:48:47.444Z,14.52
2017-10-11T12:49:47.437Z,14.51
2017-10-11T12:50:47.777Z,14.28
2017-10-11T12:51:47.426Z,14.27
2017-10-11T12:52:47.451Z,14.2
2017-10-11T12:53:47.753Z,14.2
2017-10-11T12:54:47.088Z,14.12
2017-10-11T12:55:47.070Z,14.08
2017-10-11T12:56:47.415Z,13.97